sensor_id;sensor_type;location;lat;lon;timestamp;temperature;humidity
16178;DHT22;8195;51.220;9.746;2023-02-03T00:08:42;4.30;97.20
16178;DHT22;8195;51.220;9.746;2023-02-03T00:18:43;4.40;97.20
16178;DHT22;8195;51.220;9.746;2023-02-03T00:28:44;4.40;97.20
16178;DHT22;8195;51.220;9.746;2023-02-03T00:38:44;4.40;97.20
16178;DHT22;8195;51.220;9.746;2023-02-03T00:48:45;4.50;97.20
16178;DHT22;8195;51.220;9.746;2023-02-03T00:58:45;4.60;97.20
16178;DHT22;8195;51.220;9.746;2023-02-03T01:08:47;4.60;97.20
16178;DHT22;8195;51.220;9.746;2023-02-03T01:18:48;4.70;97.20
16178;DHT22;8195;51.220;9.746;2023-02-03T01:28:52;4.70;97.20
16178;DHT22;8195;51.220;9.746;2023-02-03T01:38:53;4.70;97.20
16178;DHT22;8195;51.220;9.746;2023-02-03T01:59:10;4.80;97.20
16178;DHT22;8195;51.220;9.746;2023-02-03T02:09:13;4.80;97.20
16178;DHT22;8195;51.220;9.746;2023-02-03T02:50:22;4.80;97.20
16178;DHT22;8195;51.220;9.746;2023-02-03T03:00:24;4.90;97.20
16178;DHT22;8195;51.220;9.746;2023-02-03T03:10:26;4.90;97.20
16178;DHT22;8195;51.220;9.746;2023-02-03T03:20:30;5.00;97.20
16178;DHT22;8195;51.220;9.746;2023-02-03T03:30:35;4.90;97.20
16178;DHT22;8195;51.220;9.746;2023-02-03T03:40:50;4.90;97.20
16178;DHT22;8195;51.220;9.746;2023-02-03T03:51:04;5.00;97.20
16178;DHT22;8195;51.220;9.746;2023-02-03T04:01:07;5.00;97.20
16178;DHT22;8195;51.220;9.746;2023-02-03T04:11:08;5.00;97.20
16178;DHT22;8195;51.220;9.746;2023-02-03T04:21:09;5.00;97.20
16178;DHT22;8195;51.220;9.746;2023-02-03T04:31:09;5.00;97.20
16178;DHT22;8195;51.220;9.746;2023-02-03T04:41:10;5.00;97.20
16178;DHT22;8195;51.220;9.746;2023-02-03T04:51:10;5.00;97.20
16178;DHT22;8195;51.220;9.746;2023-02-03T05:01:11;5.00;97.20
16178;DHT22;8195;51.220;9.746;2023-02-03T05:11:12;5.00;97.20
16178;DHT22;8195;51.220;9.746;2023-02-03T05:21:13;5.00;97.20
16178;DHT22;8195;51.220;9.746;2023-02-03T05:31:13;5.10;97.20
16178;DHT22;8195;51.220;9.746;2023-02-03T05:41:14;5.10;97.20
16178;DHT22;8195;51.220;9.746;2023-02-03T05:51:14;5.10;97.20
16178;DHT22;8195;51.220;9.746;2023-02-03T06:01:15;5.10;97.20
16178;DHT22;8195;51.220;9.746;2023-02-03T06:11:15;5.00;97.20
16178;DHT22;8195;51.220;9.746;2023-02-03T06:21:16;5.10;97.20
16178;DHT22;8195;51.220;9.746;2023-02-03T06:31:17;5.10;97.20
16178;DHT22;8195;51.220;9.746;2023-02-03T06:41:17;5.10;97.20
16178;DHT22;8195;51.220;9.746;2023-02-03T06:51:18;5.20;97.20
16178;DHT22;8195;51.220;9.746;2023-02-03T07:01:18;5.20;97.20
16178;DHT22;8195;51.220;9.746;2023-02-03T07:11:19;5.20;97.20
16178;DHT22;8195;51.220;9.746;2023-02-03T07:21:19;5.20;97.20
16178;DHT22;8195;51.220;9.746;2023-02-03T07:31:20;5.20;97.20
16178;DHT22;8195;51.220;9.746;2023-02-03T07:41:21;5.30;97.20
16178;DHT22;8195;51.220;9.746;2023-02-03T07:51:22;5.30;97.20
16178;DHT22;8195;51.220;9.746;2023-02-03T08:01:22;5.30;97.20
16178;DHT22;8195;51.220;9.746;2023-02-03T08:11:23;5.40;97.20
16178;DHT22;8195;51.220;9.746;2023-02-03T08:21:23;5.30;97.20
16178;DHT22;8195;51.220;9.746;2023-02-03T08:31:24;5.30;97.20
16178;DHT22;8195;51.220;9.746;2023-02-03T08:41:25;5.40;97.20
16178;DHT22;8195;51.220;9.746;2023-02-03T08:51:25;5.50;97.20
16178;DHT22;8195;51.220;9.746;2023-02-03T09:01:26;5.60;97.20
16178;DHT22;8195;51.220;9.746;2023-02-03T09:11:26;5.50;97.20
16178;DHT22;8195;51.220;9.746;2023-02-03T09:21:27;5.60;97.20
16178;DHT22;8195;51.220;9.746;2023-02-03T09:31:28;5.60;97.20
16178;DHT22;8195;51.220;9.746;2023-02-03T09:41:55;5.60;97.20
16178;DHT22;8195;51.220;9.746;2023-02-03T09:52:04;5.60;97.20
16178;DHT22;8195;51.220;9.746;2023-02-03T10:23:33;5.80;97.20
16178;DHT22;8195;51.220;9.746;2023-02-03T10:33:34;5.90;97.20
16178;DHT22;8195;51.220;9.746;2023-02-03T10:43:35;5.90;97.20
16178;DHT22;8195;51.220;9.746;2023-02-03T10:53:36;6.00;97.20
16178;DHT22;8195;51.220;9.746;2023-02-03T11:03:37;6.10;97.20
16178;DHT22;8195;51.220;9.746;2023-02-03T11:13:38;6.10;97.20
16178;DHT22;8195;51.220;9.746;2023-02-03T11:34:05;6.30;97.20
16178;DHT22;8195;51.220;9.746;2023-02-03T11:44:15;6.40;97.20
16178;DHT22;8195;51.220;9.746;2023-02-03T12:46:21;6.60;97.20
16178;DHT22;8195;51.220;9.746;2023-02-03T12:56:26;6.60;97.20
16178;DHT22;8195;51.220;9.746;2023-02-03T13:06:42;6.70;97.20
16178;DHT22;8195;51.220;9.746;2023-02-03T13:16:50;6.70;97.20
16178;DHT22;8195;51.220;9.746;2023-02-03T13:27:13;6.70;97.20
16178;DHT22;8195;51.220;9.746;2023-02-03T13:47:35;6.70;97.20
16178;DHT22;8195;51.220;9.746;2023-02-03T13:57:37;6.40;97.20
16178;DHT22;8195;51.220;9.746;2023-02-03T14:07:38;6.50;97.20
16178;DHT22;8195;51.220;9.746;2023-02-03T14:27:42;6.40;97.20
16178;DHT22;8195;51.220;9.746;2023-02-03T14:37:51;6.30;97.20
16178;DHT22;8195;51.220;9.746;2023-02-03T14:58:35;6.30;97.20
16178;DHT22;8195;51.220;9.746;2023-02-03T15:08:40;6.20;97.20
16178;DHT22;8195;51.220;9.746;2023-02-03T15:18:41;6.10;97.20
16178;DHT22;8195;51.220;9.746;2023-02-03T15:28:41;6.10;97.20
16178;DHT22;8195;51.220;9.746;2023-02-03T15:38:46;6.10;97.20
16178;DHT22;8195;51.220;9.746;2023-02-03T15:48:57;5.90;97.20
16178;DHT22;8195;51.220;9.746;2023-02-03T15:59:00;5.90;97.20
16178;DHT22;8195;51.220;9.746;2023-02-03T16:09:03;5.80;97.20
16178;DHT22;8195;51.220;9.746;2023-02-03T16:19:12;5.70;97.20
16178;DHT22;8195;51.220;9.746;2023-02-03T16:29:13;5.70;97.20
16178;DHT22;8195;51.220;9.746;2023-02-03T16:39:14;5.70;97.20
16178;DHT22;8195;51.220;9.746;2023-02-03T16:49:15;5.70;97.20
16178;DHT22;8195;51.220;9.746;2023-02-03T16:59:16;5.70;97.20
16178;DHT22;8195;51.220;9.746;2023-02-03T17:09:17;5.60;97.20
16178;DHT22;8195;51.220;9.746;2023-02-03T17:19:18;5.60;97.20
16178;DHT22;8195;51.220;9.746;2023-02-03T17:29:18;5.50;97.20
16178;DHT22;8195;51.220;9.746;2023-02-03T17:39:19;5.40;97.20
16178;DHT22;8195;51.220;9.746;2023-02-03T17:49:20;5.40;97.20
16178;DHT22;8195;51.220;9.746;2023-02-03T17:59:20;5.40;97.20
16178;DHT22;8195;51.220;9.746;2023-02-03T18:09:21;5.40;97.20
16178;DHT22;8195;51.220;9.746;2023-02-03T18:19:21;5.30;97.20
16178;DHT22;8195;51.220;9.746;2023-02-03T18:29:22;5.40;97.20
16178;DHT22;8195;51.220;9.746;2023-02-03T18:39:23;5.30;97.20
16178;DHT22;8195;51.220;9.746;2023-02-03T18:49:23;5.20;97.20
16178;DHT22;8195;51.220;9.746;2023-02-03T18:59:24;5.20;97.20
16178;DHT22;8195;51.220;9.746;2023-02-03T19:09:24;5.30;97.20
16178;DHT22;8195;51.220;9.746;2023-02-03T19:19:25;5.40;97.20
16178;DHT22;8195;51.220;9.746;2023-02-03T19:29:25;5.30;97.20
16178;DHT22;8195;51.220;9.746;2023-02-03T19:39:26;5.30;97.20
16178;DHT22;8195;51.220;9.746;2023-02-03T19:49:27;5.20;97.20
16178;DHT22;8195;51.220;9.746;2023-02-03T19:59:27;5.10;97.20
16178;DHT22;8195;51.220;9.746;2023-02-03T20:09:28;5.80;97.20
16178;DHT22;8195;51.220;9.746;2023-02-03T20:19:28;5.10;97.20
16178;DHT22;8195;51.220;9.746;2023-02-03T20:29:29;5.00;97.20
16178;DHT22;8195;51.220;9.746;2023-02-03T20:39:29;4.90;97.20
16178;DHT22;8195;51.220;9.746;2023-02-03T20:49:30;4.80;97.20
16178;DHT22;8195;51.220;9.746;2023-02-03T20:59:31;4.70;97.20
16178;DHT22;8195;51.220;9.746;2023-02-03T21:09:31;4.70;97.20
16178;DHT22;8195;51.220;9.746;2023-02-03T21:19:32;4.60;97.20
16178;DHT22;8195;51.220;9.746;2023-02-03T21:29:34;4.60;97.20
16178;DHT22;8195;51.220;9.746;2023-02-03T21:39:35;4.60;97.20
16178;DHT22;8195;51.220;9.746;2023-02-03T21:49:36;4.50;97.20
16178;DHT22;8195;51.220;9.746;2023-02-03T21:59:38;4.50;97.20
16178;DHT22;8195;51.220;9.746;2023-02-03T22:09:38;4.40;97.20
16178;DHT22;8195;51.220;9.746;2023-02-03T22:19:39;4.40;97.20
16178;DHT22;8195;51.220;9.746;2023-02-03T22:29:39;4.30;97.20
16178;DHT22;8195;51.220;9.746;2023-02-03T22:39:40;4.40;97.20
16178;DHT22;8195;51.220;9.746;2023-02-03T22:49:41;4.40;97.20
16178;DHT22;8195;51.220;9.746;2023-02-03T22:59:41;4.50;97.20
16178;DHT22;8195;51.220;9.746;2023-02-03T23:09:42;4.50;97.20
16178;DHT22;8195;51.220;9.746;2023-02-03T23:19:42;4.60;97.20
16178;DHT22;8195;51.220;9.746;2023-02-03T23:29:43;4.60;97.20
16178;DHT22;8195;51.220;9.746;2023-02-03T23:39:44;4.50;97.20
16178;DHT22;8195;51.220;9.746;2023-02-03T23:49:44;4.60;97.20
16178;DHT22;8195;51.220;9.746;2023-02-03T23:59:45;4.50;97.20
